Time;durP1;ratioP1;P1;durP2;ratioP2;P2;SDS_P1;SDS_P2;PMS_P1;PMS_P2;Temp;Humidity;BMP_temperature;BMP_pressure;BME280_temperature;BME280_humidity;BME280_pressure;Samples;Min_cycle;Max_cycle;Signal;HPM_P1;HPM_P2
2022/11/19 00:01:23;;;;;;;7.82;4.22;;;0.20;99.90;;;;;;5049560;28;20041;-48
2022/11/19 00:03:49;;;;;;;6.47;3.67;;;0.10;99.90;;;;;;5050510;28;20074;-50
2022/11/19 00:06:20;;;;;;;6.95;4.07;;;0.10;99.90;;;;;;5050065;28;20612;-48
2022/11/19 00:08:46;;;;;;;6.05;3.65;;;0.10;99.90;;;;;;5050163;28;20036;-46
2022/11/19 00:11:15;;;;;;;7.93;4.43;;;0.10;99.90;;;;;;5049809;28;20041;-50
2022/11/19 00:13:41;;;;;;;7.32;4.22;;;0.00;99.90;;;;;;5049881;28;20041;-45
2022/11/19 00:16:12;;;;;;;5.82;3.55;;;0.00;99.90;;;;;;5049437;28;20086;-50
2022/11/19 00:18:39;;;;;;;7.65;4.10;;;-0.10;99.90;;;;;;5049286;28;20498;-46
2022/11/19 00:21:07;;;;;;;7.82;4.65;;;-0.10;99.90;;;;;;5049193;28;20421;-48
2022/11/19 00:23:33;;;;;;;8.20;4.55;;;-0.20;99.90;;;;;;5049350;28;20041;-46
2022/11/19 00:26:04;;;;;;;8.70;4.95;;;-0.20;99.90;;;;;;5049165;28;20037;-48
2022/11/19 00:28:30;;;;;;;6.95;4.00;;;-0.30;99.90;;;;;;5049214;28;20390;-51
2022/11/19 00:31:09;;;;;;;6.60;4.22;;;-0.10;99.90;;;;;;5048938;28;20049;-50
2022/11/19 00:33:37;;;;;;;6.72;4.05;;;-0.50;99.90;;;;;;5049044;28;20033;-48
2022/11/19 00:36:04;;;;;;;6.53;3.47;;;-0.50;99.90;;;;;;5048914;28;20072;-47
2022/11/19 00:38:30;;;;;;;9.52;4.90;;;-0.70;99.90;;;;;;5048977;28;20059;-47
2022/11/19 00:40:57;;;;;;;7.60;4.80;;;-0.60;99.90;;;;;;5048743;28;20037;-49
2022/11/19 00:46:07;;;;;;;8.52;4.30;;;-0.60;99.90;;;;;;5048587;28;20055;-49
2022/11/19 00:48:33;;;;;;;8.32;4.68;;;-0.60;99.90;;;;;;5049188;28;20041;-47
2022/11/19 00:50:59;;;;;;;8.85;4.95;;;-0.70;99.90;;;;;;5049131;28;20037;-46
2022/11/19 00:53:25;;;;;;;7.85;4.55;;;-0.70;99.90;;;;;;5048834;28;20049;-48
2022/11/19 00:55:50;;;;;;;7.45;4.50;;;-0.70;99.90;;;;;;5048887;28;20049;-47
2022/11/19 00:58:18;;;;;;;8.60;4.60;;;-0.70;99.90;;;;;;5048475;28;20050;-47
2022/11/19 01:00:44;;;;;;;7.95;4.65;;;-0.70;99.90;;;;;;5048539;28;20401;-46
2022/11/19 01:03:10;;;;;;;9.68;5.18;;;-0.60;99.90;;;;;;5048026;28;20068;-49
2022/11/19 01:05:35;;;;;;;8.73;4.93;;;-0.70;99.90;;;;;;5048400;28;20056;-51
2022/11/19 01:08:01;;;;;;;8.73;5.25;;;-0.80;99.90;;;;;;5048047;28;20127;-49
2022/11/19 01:10:27;;;;;;;10.07;4.95;;;-0.80;99.90;;;;;;5048056;28;20045;-48
2022/11/19 01:15:37;;;;;;;8.52;4.50;;;-0.20;99.90;;;;;;5048238;28;20051;-47
2022/11/19 01:18:02;;;;;;;9.30;5.57;;;-0.80;99.90;;;;;;5048131;28;20691;-48
2022/11/19 01:20:28;;;;;;;9.25;4.78;;;-0.90;99.90;;;;;;5047765;28;20465;-48
2022/11/19 01:22:54;;;;;;;11.27;4.78;;;-1.00;99.90;;;;;;5048195;28;20064;-47
2022/11/19 01:25:19;;;;;;;8.63;3.92;;;-0.90;99.90;;;;;;5048073;28;20040;-50
2022/11/19 01:27:45;;;;;;;7.65;4.78;;;-1.00;99.90;;;;;;5048817;28;20076;-51
2022/11/19 01:30:11;;;;;;;8.38;4.80;;;-1.00;99.90;;;;;;5048559;28;20041;-48
2022/11/19 01:32:37;;;;;;;9.25;4.97;;;-1.00;99.90;;;;;;5048573;28;20139;-48
2022/11/19 01:35:03;;;;;;;8.23;4.90;;;-1.00;99.90;;;;;;5048675;28;20036;-47
2022/11/19 01:37:29;;;;;;;9.13;5.55;;;-1.00;99.90;;;;;;5048385;28;20124;-46
2022/11/19 01:39:54;;;;;;;8.80;4.95;;;-1.00;99.90;;;;;;5048474;28;20128;-47
2022/11/19 01:42:49;;;;;;;10.25;5.43;;;-1.90;99.90;;;;;;5047576;28;20538;-49
2022/11/19 01:45:36;;;;;;;9.25;5.28;;;-1.00;99.90;;;;;;5047670;28;20044;-49
2022/11/19 01:48:08;;;;;;;10.25;5.55;;;-1.20;99.90;;;;;;5047974;28;20431;-48
2022/11/19 01:50:38;;;;;;;;;;;-1.10;99.90;;;;;;5048628;28;20045;-48
2022/11/19 01:53:04;;;;;;;9.32;5.13;;;-1.10;99.90;;;;;;5047885;28;19924;-48
2022/11/19 01:55:30;;;;;;;9.73;5.07;;;-1.10;99.90;;;;;;5047329;28;20128;-48
2022/11/19 01:58:00;;;;;;;11.43;5.03;;;-1.00;99.90;;;;;;5047106;28;20041;-47
2022/11/19 02:00:26;;;;;;;9.73;5.10;;;-1.00;99.90;;;;;;5047000;28;20044;-50
2022/11/19 02:02:52;;;;;;;11.10;6.90;;;-1.10;99.90;;;;;;5046872;28;20053;-49
2022/11/19 02:05:18;;;;;;;7.60;4.60;;;-1.10;99.90;;;;;;5047100;28;20083;-48
2022/11/19 02:07:52;;;;;;;8.85;4.95;;;-1.20;99.90;;;;;;5047527;28;20045;-47
2022/11/19 02:10:19;;;;;;;10.10;5.07;;;-1.10;99.90;;;;;;5046967;28;20044;-46
2022/11/19 02:13:02;;;;;;;9.70;5.45;;;-1.20;99.90;;;;;;5047105;28;20041;-49
2022/11/19 02:16:01;;;;;;;8.48;5.10;;;0.10;99.90;;;;;;5046980;28;20067;-50
2022/11/19 02:18:36;;;;;;;10.85;6.28;;;-1.20;99.90;;;;;;5047080;28;20729;-51
2022/11/19 02:21:16;;;;;;;7.85;4.78;;;-1.20;99.90;;;;;;5046759;28;20494;-49
2022/11/19 02:24:19;;;;;;;9.98;4.80;;;-1.20;99.90;;;;;;5047681;28;20049;-47
2022/11/19 02:27:04;;;;;;;7.35;4.57;;;-1.30;99.90;;;;;;5047359;28;20060;-49
2022/11/19 02:29:29;;;;;;;6.97;4.20;;;-1.20;99.90;;;;;;5047152;28;20684;-48
2022/11/19 02:32:00;;;;;;;8.68;4.90;;;-1.30;99.90;;;;;;5047315;28;20124;-48
2022/11/19 02:34:39;;;;;;;8.20;4.35;;;-1.30;99.90;;;;;;5047155;28;20106;-49
2022/11/19 02:37:22;;;;;;;10.23;4.93;;;-1.30;99.90;;;;;;5047871;28;20045;-49
2022/11/19 02:39:57;;;;;;;9.38;4.90;;;-1.40;99.90;;;;;;5047318;28;20048;-49
2022/11/19 02:42:34;;;;;;;8.93;5.13;;;-1.40;99.90;;;;;;5047218;28;20044;-51
2022/11/19 02:45:09;;;;;;;7.45;4.32;;;-1.60;99.90;;;;;;5046975;28;20071;-47
2022/11/19 02:47:43;;;;;;;9.43;5.50;;;-1.60;99.90;;;;;;5046531;28;20367;-49
2022/11/19 02:50:14;;;;;;;9.35;5.40;;;-1.60;99.90;;;;;;5046387;28;20093;-48
2022/11/19 02:52:42;;;;;;;8.05;4.78;;;-1.70;99.90;;;;;;5046395;28;20041;-47
2022/11/19 02:55:19;;;;;;;9.10;4.03;;;-1.70;99.90;;;;;;5046570;28;20087;-49
2022/11/19 02:58:02;;;;;;;7.90;4.35;;;-1.70;99.90;;;;;;5046640;28;20102;-47
2022/11/19 03:06:15;;;;;;;7.70;5.00;;;-0.80;99.90;;;;;;5046339;28;20053;-48
2022/11/19 03:08:41;;;;;;;10.23;5.72;;;-0.50;99.90;;;;;;5045742;28;20898;-48
2022/11/19 03:11:21;;;;;;;8.32;5.35;;;-0.80;99.90;;;;;;5046064;28;20069;-49
2022/11/19 03:17:26;;;;;;;9.13;4.72;;;-1.00;99.90;;;;;;5046068;28;20119;-52
2022/11/19 03:19:54;;;;;;;12.27;5.47;;;-1.10;99.90;;;;;;5045083;28;20573;-51
2022/11/19 03:22:33;;;;;;;9.82;5.72;;;-0.30;99.90;;;;;;5044726;28;20045;-49
2022/11/19 03:25:11;;;;;;;9.88;6.10;;;-1.20;99.90;;;;;;5045578;28;20090;-53
2022/11/19 03:27:49;;;;;;;7.18;4.13;;;-1.30;99.90;;;;;;5044956;28;20103;-51
2022/11/19 03:30:17;;;;;;;12.45;5.35;;;-1.30;99.90;;;;;;5045551;28;20091;-51
2022/11/19 03:32:58;;;;;;;8.80;5.22;;;-1.30;99.90;;;;;;5047975;28;20049;-52
2022/11/19 03:35:42;;;;;;;9.70;5.97;;;-1.40;99.90;;;;;;5050597;28;20043;-51
2022/11/19 03:38:13;;;;;;;9.55;5.70;;;-1.40;99.90;;;;;;5050113;28;20045;-52
2022/11/19 03:40:41;;;;;;;7.20;4.78;;;-1.40;99.90;;;;;;5050341;28;20119;-51
2022/11/19 03:43:10;;;;;;;10.15;5.40;;;-1.50;99.90;;;;;;5048991;28;20548;-53
2022/11/19 03:45:43;;;;;;;10.93;5.43;;;0.40;99.90;;;;;;5049912;28;20127;-51
2022/11/19 03:48:11;;;;;;;8.52;5.25;;;-1.60;99.90;;;;;;5049659;28;20581;-52
2022/11/19 03:51:00;;;;;;;12.18;4.90;;;-1.70;99.90;;;;;;5050003;28;20128;-50
2022/11/19 03:53:27;;;;;;;8.93;5.55;;;-1.70;99.90;;;;;;5049998;28;20045;-49
2022/11/19 03:56:01;;;;;;;10.63;5.50;;;-1.80;99.90;;;;;;5050030;28;20087;-51
2022/11/19 03:58:28;;;;;;;9.25;5.68;;;-1.80;99.90;;;;;;5049969;28;20708;-50
2022/11/19 04:00:54;;;;;;;7.88;4.78;;;-1.90;99.90;;;;;;5050060;28;20052;-50
2022/11/19 04:03:20;;;;;;;12.95;5.20;;;-1.90;99.90;;;;;;5049555;28;20057;-49
2022/11/19 04:05:46;;;;;;;9.88;4.95;;;-1.90;99.90;;;;;;5064718;28;20140;-53
2022/11/19 04:08:12;;;;;;;10.43;5.13;;;-2.00;99.90;;;;;;5049678;28;20087;-51
2022/11/19 04:10:37;;;;;;;9.55;5.50;;;-2.00;99.90;;;;;;5049707;28;20045;-52
2022/11/19 04:13:03;;;;;;;10.10;5.85;;;-2.00;99.90;;;;;;5049585;28;20063;-50
2022/11/19 04:15:29;;;;;;;9.15;5.50;;;-2.00;99.90;;;;;;5049528;28;20355;-52
2022/11/19 04:17:54;;;;;;;12.00;6.30;;;-2.00;99.90;;;;;;5049701;28;20127;-50
2022/11/19 04:20:20;;;;;;;8.63;5.28;;;-2.00;99.90;;;;;;5050066;28;20037;-52
2022/11/19 04:22:46;;;;;;;10.90;6.65;;;-2.10;99.90;;;;;;5049991;28;20052;-50
2022/11/19 04:25:11;;;;;;;9.65;5.68;;;-2.10;99.90;;;;;;5049994;28;20554;-52
2022/11/19 04:27:37;;;;;;;9.45;5.45;;;-1.80;99.90;;;;;;5049444;28;20056;-51
2022/11/19 04:30:04;;;;;;;10.00;6.10;;;-2.10;99.90;;;;;;5049723;28;20462;-50
2022/11/19 04:32:30;;;;;;;9.93;5.82;;;-2.10;99.90;;;;;;5049287;28;20060;-50
2022/11/19 04:34:56;;;;;;;9.00;5.50;;;-2.20;99.90;;;;;;5049169;28;20049;-52
2022/11/19 04:37:21;;;;;;;11.13;6.47;;;-1.00;99.90;;;;;;5049336;28;20041;-50
2022/11/19 04:39:47;;;;;;;10.38;6.18;;;-2.20;99.90;;;;;;5049007;28;20056;-48
2022/11/19 04:42:13;;;;;;;11.48;7.28;;;-2.30;99.90;;;;;;5049225;28;20041;-51
2022/11/19 04:44:39;;;;;;;10.18;6.10;;;-2.30;99.90;;;;;;5049089;28;20091;-48
2022/11/19 04:47:04;;;;;;;9.18;5.68;;;-2.30;99.90;;;;;;5049036;28;20072;-49
2022/11/19 04:49:30;;;;;;;9.20;5.57;;;-2.40;99.90;;;;;;5048556;28;20043;-50
2022/11/19 04:51:55;;;;;;;11.13;6.53;;;-2.40;99.90;;;;;;5048384;28;20044;-51
2022/11/19 04:54:21;;;;;;;10.32;6.13;;;-2.40;99.90;;;;;;5048686;28;20053;-50
2022/11/19 04:56:47;;;;;;;9.85;5.93;;;-2.50;99.90;;;;;;5048777;28;20040;-51
2022/11/19 04:59:12;;;;;;;10.90;6.70;;;-2.50;99.90;;;;;;5048902;28;20036;-48
2022/11/19 05:01:38;;;;;;;11.45;6.00;;;-2.50;99.90;;;;;;5048464;28;20127;-48
2022/11/19 05:04:04;;;;;;;10.15;6.38;;;-2.60;99.90;;;;;;5048840;28;20045;-49
2022/11/19 05:06:29;;;;;;;11.85;6.07;;;-2.50;99.90;;;;;;5049347;28;20043;-49
2022/11/19 05:08:55;;;;;;;10.25;6.30;;;-2.50;99.90;;;;;;5048867;28;20071;-51
2022/11/19 05:11:21;;;;;;;11.55;7.00;;;-2.60;99.90;;;;;;5047673;28;20048;-51
2022/11/19 05:13:46;;;;;;;11.48;7.20;;;-2.60;99.90;;;;;;5048587;28;20052;-50
2022/11/19 05:16:12;;;;;;;13.80;7.20;;;-2.70;99.90;;;;;;5047765;28;20076;-51
2022/11/19 05:18:38;;;;;;;11.13;6.32;;;-2.70;99.90;;;;;;5048747;28;20063;-52
2022/11/19 05:21:03;;;;;;;10.82;6.72;;;-2.70;99.90;;;;;;5049160;28;20470;-51
2022/11/19 05:23:29;;;;;;;11.95;7.55;;;-2.70;99.90;;;;;;5047764;28;20114;-52
2022/11/19 05:25:55;;;;;;;12.13;6.93;;;-2.70;99.90;;;;;;5048805;28;20106;-52
2022/11/19 05:28:20;;;;;;;10.85;6.80;;;-2.70;99.90;;;;;;5048499;28;20047;-50
2022/11/19 05:30:46;;;;;;;12.15;6.85;;;-2.70;99.90;;;;;;5048331;28;20390;-49
2022/11/19 05:33:12;;;;;;;9.38;6.47;;;-2.70;99.90;;;;;;5048645;28;20111;-48
2022/11/19 05:35:37;;;;;;;11.20;6.90;;;-2.70;99.90;;;;;;5048768;28;20051;-51
2022/11/19 05:38:03;;;;;;;13.18;7.28;;;-2.70;99.90;;;;;;5047502;28;20048;-51
2022/11/19 05:40:29;;;;;;;12.63;6.85;;;-2.80;99.90;;;;;;5048660;28;20047;-51
2022/11/19 05:42:54;;;;;;;12.88;7.47;;;-2.80;99.90;;;;;;5048242;28;20430;-52
2022/11/19 05:45:20;;;;;;;13.85;7.65;;;-2.80;99.90;;;;;;5048120;28;20422;-52
2022/11/19 05:47:46;;;;;;;11.15;6.55;;;-2.80;99.90;;;;;;5047918;28;20091;-48
2022/11/19 05:50:11;;;;;;;13.10;7.95;;;-2.80;99.90;;;;;;5048471;28;20044;-47
2022/11/19 05:52:37;;;;;;;12.55;7.20;;;-2.80;99.90;;;;;;5048314;28;20048;-48
2022/11/19 05:55:03;;;;;;;12.98;7.57;;;-2.80;99.90;;;;;;5046997;28;20071;-51
2022/11/19 05:57:29;;;;;;;13.48;7.70;;;-2.80;99.90;;;;;;5046512;28;20764;-50
2022/11/19 05:59:54;;;;;;;11.98;7.03;;;-2.80;99.90;;;;;;5046283;28;20056;-51
2022/11/19 06:02:20;;;;;;;12.57;7.30;;;-2.80;99.90;;;;;;5047470;28;20057;-48
2022/11/19 06:04:46;;;;;;;12.88;7.55;;;-2.90;99.90;;;;;;5047111;28;20055;-49
2022/11/19 06:07:11;;;;;;;11.55;7.35;;;-2.90;99.90;;;;;;5047735;28;20040;-49
2022/11/19 06:09:37;;;;;;;13.48;7.82;;;-2.90;99.90;;;;;;5062601;28;20053;-51
2022/11/19 06:12:03;;;;;;;13.20;7.20;;;-2.90;99.90;;;;;;5047007;28;20477;-50
2022/11/19 06:14:29;;;;;;;12.15;7.45;;;-2.90;99.90;;;;;;5047221;28;20044;-49
2022/11/19 06:16:59;;;;;;;13.80;8.30;;;-2.90;99.90;;;;;;5046966;28;20033;-48
2022/11/19 06:19:25;;;;;;;13.48;7.55;;;-3.00;99.90;;;;;;5047256;28;20448;-49
2022/11/19 06:21:51;;;;;;;13.95;7.90;;;-3.10;99.90;;;;;;5047204;28;20064;-50
2022/11/19 06:24:17;;;;;;;14.02;8.82;;;-3.00;99.90;;;;;;5047464;28;20071;-47
2022/11/19 06:26:43;;;;;;;14.52;9.10;;;-3.00;99.90;;;;;;5046912;28;20049;-50
2022/11/19 06:29:16;;;;;;;13.35;7.47;;;-2.80;99.90;;;;;;5047246;28;20044;-51
2022/11/19 06:31:41;;;;;;;12.90;7.82;;;-3.00;99.90;;;;;;5046736;28;20509;-48
2022/11/19 06:34:08;;;;;;;13.95;8.68;;;-3.00;99.90;;;;;;5046524;28;20049;-50
2022/11/19 06:36:33;;;;;;;14.98;8.68;;;-3.10;99.90;;;;;;5046771;28;20044;-51
2022/11/19 06:38:59;;;;;;;13.30;7.55;;;-3.10;99.90;;;;;;5046804;28;20799;-51
2022/11/19 06:41:25;;;;;;;13.52;8.50;;;-3.10;99.90;;;;;;5046806;28;20045;-49
2022/11/19 06:43:50;;;;;;;13.13;7.82;;;-3.10;99.90;;;;;;5046721;28;20049;-49
2022/11/19 06:46:16;;;;;;;11.95;7.90;;;-3.10;99.90;;;;;;5046632;28;20493;-48
2022/11/19 06:48:42;;;;;;;14.43;7.95;;;-3.10;99.90;;;;;;5046495;28;20477;-50
2022/11/19 06:51:08;;;;;;;12.15;8.07;;;-3.20;99.90;;;;;;5046049;28;20033;-49
2022/11/19 06:53:34;;;;;;;12.75;8.30;;;-3.20;99.90;;;;;;5044897;28;20131;-49
2022/11/19 06:56:03;;;;;;;13.93;8.77;;;-3.20;99.90;;;;;;5044973;28;20448;-50
2022/11/19 06:58:29;;;;;;;12.30;8.07;;;-3.20;99.90;;;;;;5045213;28;20537;-47
2022/11/19 07:00:55;;;;;;;15.70;8.25;;;-3.20;99.90;;;;;;5046133;28;20116;-48
2022/11/19 07:03:21;;;;;;;13.13;8.48;;;-2.40;99.90;;;;;;5046132;28;20496;-50
2022/11/19 07:05:48;;;;;;;13.85;8.75;;;-3.20;99.90;;;;;;5046027;28;20053;-49
2022/11/19 07:08:15;;;;;;;14.82;8.40;;;-3.20;99.90;;;;;;5046199;28;20076;-48
2022/11/19 07:10:41;;;;;;;14.80;8.27;;;-3.30;99.90;;;;;;5046227;28;20557;-47
2022/11/19 07:13:06;;;;;;;14.10;8.73;;;-3.20;99.90;;;;;;5044410;28;20051;-49
2022/11/19 07:15:32;;;;;;;14.05;8.70;;;-3.20;99.90;;;;;;5046437;28;20037;-48
2022/11/19 07:17:57;;;;;;;13.07;7.75;;;-3.30;99.90;;;;;;5046241;28;20041;-49
2022/11/19 07:20:23;;;;;;;13.60;8.27;;;-3.20;99.90;;;;;;5046564;28;20041;-46
2022/11/19 07:22:49;;;;;;;11.52;7.38;;;-3.20;99.90;;;;;;5046364;28;20540;-47
2022/11/19 07:25:15;;;;;;;14.18;8.43;;;-3.20;99.90;;;;;;5046717;28;20055;-46
2022/11/19 07:27:42;;;;;;;18.42;7.88;;;-3.20;99.90;;;;;;5046196;28;20498;-47
2022/11/19 07:30:08;;;;;;;13.10;8.70;;;-3.20;99.90;;;;;;5046062;28;20471;-50
2022/11/19 07:32:34;;;;;;;16.05;8.93;;;-3.10;99.90;;;;;;5046354;28;20106;-49
2022/11/19 07:35:00;;;;;;;14.93;9.15;;;-3.20;99.90;;;;;;5046047;28;20041;-46
2022/11/19 07:37:25;;;;;;;15.18;9.20;;;-3.20;99.90;;;;;;5046370;28;20036;-47
2022/11/19 07:39:51;;;;;;;15.00;8.82;;;-3.20;99.90;;;;;;5046272;28;20566;-50
2022/11/19 07:45:02;;;;;;;12.88;8.13;;;-3.10;99.90;;;;;;5046143;28;20123;-49
2022/11/19 07:47:27;;;;;;;16.35;8.82;;;-3.10;99.90;;;;;;5046153;28;20045;-47
2022/11/19 07:49:53;;;;;;;12.80;7.82;;;-3.10;99.90;;;;;;5045899;28;20040;-48
2022/11/19 07:52:20;;;;;;;14.35;9.15;;;-3.10;99.90;;;;;;5046503;28;20052;-47
2022/11/19 07:54:45;;;;;;;16.17;8.15;;;-3.10;99.90;;;;;;5046173;28;20041;-49
2022/11/19 07:57:11;;;;;;;13.38;8.52;;;-3.00;99.90;;;;;;5044288;28;20623;-47
2022/11/19 07:59:37;;;;;;;14.60;9.23;;;-3.00;99.90;;;;;;5046002;28;20056;-48
2022/11/19 08:02:02;;;;;;;14.60;9.43;;;-2.90;99.90;;;;;;5045504;28;20056;-47
2022/11/19 08:04:28;;;;;;;16.35;9.48;;;-2.90;99.90;;;;;;5045839;28;20037;-48
2022/11/19 08:06:54;;;;;;;14.23;8.00;;;-2.90;99.90;;;;;;5044251;28;20725;-50
2022/11/19 08:09:20;;;;;;;13.48;7.50;;;-2.80;99.90;;;;;;5045972;28;20049;-50
2022/11/19 08:11:45;;;;;;;14.65;9.05;;;-4.40;99.90;;;;;;5045857;28;20041;-46
2022/11/19 08:14:12;;;;;;;12.73;7.63;;;-2.70;99.90;;;;;;5045483;28;20049;-48
2022/11/19 08:19:22;;;;;;;13.80;8.30;;;-2.60;99.90;;;;;;5049435;28;20044;-48
2022/11/19 08:21:48;;;;;;;15.07;9.40;;;-2.60;99.90;;;;;;5049665;28;20571;-50
2022/11/19 08:24:16;;;;;;;18.20;9.38;;;-2.50;99.90;;;;;;5049339;28;20072;-46
2022/11/19 08:26:42;;;;;;;13.30;8.55;;;-2.50;99.90;;;;;;5049717;28;20052;-48
2022/11/19 08:29:08;;;;;;;13.43;8.82;;;-2.50;99.90;;;;;;5049515;28;20058;-48
2022/11/19 08:31:34;;;;;;;17.65;9.10;;;-2.40;99.90;;;;;;5049489;28;20045;-47
2022/11/19 08:34:01;;;;;;;13.68;8.60;;;-2.40;99.90;;;;;;5049364;28;20040;-50
2022/11/19 08:36:27;;;;;;;13.85;8.25;;;-2.30;99.90;;;;;;5049080;28;20044;-48
2022/11/19 08:38:57;;;;;;;13.23;7.88;;;-2.30;99.90;;;;;;5049160;28;20099;-48
2022/11/19 08:44:07;;;;;;;12.75;9.02;;;-2.10;99.90;;;;;;5048530;28;20053;-50
2022/11/19 08:46:32;;;;;;;11.80;7.55;;;-2.10;99.90;;;;;;5048664;28;20048;-48
2022/11/19 08:48:58;;;;;;;13.95;9.05;;;-0.80;99.90;;;;;;5048901;28;20127;-50
2022/11/19 08:51:24;;;;;;;13.65;7.82;;;-1.90;99.90;;;;;;5047329;28;20040;-47
2022/11/19 08:53:52;;;;;;;10.85;6.85;;;-1.90;99.90;;;;;;5049012;28;20375;-49
2022/11/19 08:56:19;;;;;;;12.93;8.25;;;-1.90;99.90;;;;;;5048828;28;20101;-49
2022/11/19 08:58:45;;;;;;;14.90;8.40;;;-1.80;99.90;;;;;;5048920;28;20045;-49
2022/11/19 09:01:12;;;;;;;11.75;7.78;;;-1.70;99.90;;;;;;5048739;28;20048;-49
2022/11/19 09:03:38;;;;;;;12.13;7.05;;;-1.60;99.90;;;;;;5048743;28;20107;-49
2022/11/19 09:06:05;;;;;;;13.13;8.57;;;-1.50;99.90;;;;;;5048808;28;20094;-48
2022/11/19 09:08:31;;;;;;;14.60;7.85;;;-1.50;99.90;;;;;;5048906;28;20049;-47
2022/11/19 09:10:57;;;;;;;10.70;7.32;;;-0.40;99.90;;;;;;5048626;28;20085;-50
2022/11/19 09:13:23;;;;;;;13.32;8.23;;;-1.30;99.90;;;;;;5048397;28;20557;-50
2022/11/19 09:15:50;;;;;;;11.80;6.75;;;-1.30;99.90;;;;;;5048063;28;20124;-48
2022/11/19 09:18:15;;;;;;;12.85;8.63;;;-1.20;99.90;;;;;;5047122;28;20045;-48
2022/11/19 09:20:41;;;;;;;15.20;8.80;;;-1.20;99.90;;;;;;5047561;28;20472;-48
2022/11/19 09:23:07;;;;;;;12.20;8.02;;;-1.10;99.90;;;;;;5048183;28;20053;-51
2022/11/19 09:25:33;;;;;;;14.32;8.10;;;-1.10;99.90;;;;;;5048178;28;20079;-51
2022/11/19 09:27:59;;;;;;;13.00;8.15;;;-1.10;99.90;;;;;;5047661;28;20776;-52
2022/11/19 09:30:24;;;;;;;13.00;8.15;;;-1.00;99.90;;;;;;5046413;28;20036;-52
2022/11/19 09:32:50;;;;;;;12.68;8.32;;;-1.00;99.90;;;;;;5047873;28;20479;-51
2022/11/19 09:35:16;;;;;;;12.43;8.13;;;-0.90;99.90;;;;;;5048217;28;20043;-52
2022/11/19 09:37:42;;;;;;;11.65;7.40;;;-0.90;99.90;;;;;;5048589;28;20049;-50
2022/11/19 09:40:15;;;;;;;13.10;7.45;;;-0.90;99.90;;;;;;5048376;28;20048;-52
2022/11/19 09:43:13;;;;;;;10.27;6.97;;;-0.80;99.90;;;;;;5048404;28;20115;-51
2022/11/19 09:46:02;;;;;;;11.48;7.30;;;-0.80;99.90;;;;;;5047325;28;20379;-55
2022/11/19 09:48:33;;;;;;;11.88;7.13;;;1.60;99.90;;;;;;5046386;28;20056;-55
2022/11/19 09:51:10;;;;;;;11.90;6.32;;;-0.70;99.90;;;;;;5047925;28;20468;-55
2022/11/19 09:53:53;;;;;;;10.77;6.82;;;-0.70;99.90;;;;;;5047761;28;20103;-55
2022/11/19 09:56:37;;;;;;;10.95;7.72;;;-0.60;99.90;;;;;;5044999;28;20528;-44
2022/11/19 09:59:12;;;;;;;11.77;7.43;;;-0.60;99.90;;;;;;5043277;28;20040;-48
2022/11/19 10:01:38;;;;;;;11.15;6.82;;;-0.70;99.90;;;;;;5045558;28;20151;-50
2022/11/19 10:04:04;;;;;;;11.57;6.20;;;-0.50;99.90;;;;;;5046919;28;20060;-47
2022/11/19 10:06:55;;;;;;;11.38;6.75;;;-0.50;99.90;;;;;;5046316;28;20052;-46
2022/11/19 10:09:40;;;;;;;13.73;7.13;;;-0.50;99.90;;;;;;5044363;28;20051;-49
2022/11/19 10:12:56;;;;;;;12.27;8.00;;;-0.40;99.90;;;;;;5046316;28;20040;-48
2022/11/19 10:15:54;;;;;;;10.07;7.07;;;-0.40;99.90;;;;;;5044234;28;20057;-48
2022/11/19 10:18:26;;;;;;;10.20;6.40;;;-0.40;99.90;;;;;;5045134;28;20908;-45
2022/11/19 10:21:15;;;;;;;10.60;6.70;;;-0.30;99.90;;;;;;5046707;28;20041;-43
2022/11/19 10:23:47;;;;;;;8.85;5.75;;;-0.30;99.90;;;;;;5046421;28;20053;-52
2022/11/19 10:26:33;;;;;;;8.85;6.30;;;-0.40;99.90;;;;;;5046120;28;20044;-50
2022/11/19 10:29:00;;;;;;;8.18;5.68;;;-0.30;99.90;;;;;;5046471;28;20068;-59
2022/11/19 10:31:42;;;;;;;8.95;6.63;;;-0.20;99.90;;;;;;5061186;28;20053;-60
2022/11/19 10:34:18;;;;;;;11.25;6.45;;;-0.20;99.90;;;;;;5061095;28;20577;-59
2022/11/19 10:36:51;;;;;;;11.55;6.45;;;-0.20;99.90;;;;;;5046418;28;20040;-60
2022/11/19 10:39:51;;;;;;;9.30;6.05;;;-0.10;99.90;;;;;;5046037;28;20048;-57
2022/11/19 10:42:27;;;;;;;8.30;5.28;;;-0.10;99.90;;;;;;5045441;28;20045;-64
2022/11/19 10:45:17;;;;;;;9.35;5.90;;;-0.10;99.90;;;;;;5047096;28;20048;-60
2022/11/19 10:48:07;;;;;;;11.25;6.18;;;0.00;99.90;;;;;;5044685;28;20048;-57
2022/11/19 10:50:32;;;;;;;8.70;5.53;;;0.00;99.90;;;;;;5045542;28;20049;-59
2022/11/19 10:53:28;;;;;;;7.32;4.97;;;0.00;99.90;;;;;;5044146;28;20095;-58
2022/11/19 10:56:08;;;;;;;9.10;5.07;;;0.00;99.90;;;;;;5044512;28;20063;-57
2022/11/19 10:58:41;;;;;;;8.10;5.25;;;0.00;99.90;;;;;;5039506;28;20041;-57
2022/11/19 11:01:25;;;;;;;9.13;5.88;;;0.00;99.90;;;;;;5061795;28;20056;-56
2022/11/19 11:04:04;;;;;;;12.25;5.18;;;0.00;99.90;;;;;;5044338;28;20763;-57
2022/11/19 11:06:52;;;;;;;9.93;5.70;;;0.00;99.90;;;;;;5062404;28;20087;-60
2022/11/19 11:09:33;;;;;;;9.23;5.40;;;0.10;99.90;;;;;;5043972;28;20626;-59
2022/11/19 11:15:07;;;;;;;9.85;5.00;;;0.00;99.90;;;;;;5043682;28;20044;-56
2022/11/19 11:17:35;;;;;;;8.77;5.05;;;0.10;99.90;;;;;;5043958;28;20079;-53
2022/11/19 11:20:07;;;;;;;6.30;4.15;;;0.10;99.90;;;;;;5062150;28;20048;-48
2022/11/19 11:22:34;;;;;;;7.70;5.00;;;0.20;99.90;;;;;;5062139;28;20359;-50
2022/11/19 11:25:00;;;;;;;7.88;4.70;;;0.20;99.90;;;;;;5061970;28;20040;-50
2022/11/19 11:27:32;;;;;;;7.47;5.32;;;0.30;99.90;;;;;;5062124;28;20048;-50
2022/11/19 11:30:13;;;;;;;7.38;4.95;;;0.30;99.90;;;;;;5062341;28;20113;-52
2022/11/19 11:32:40;;;;;;;6.28;3.72;;;0.30;99.90;;;;;;5062446;28;20129;-49
2022/11/19 11:35:33;;;;;;;7.95;4.63;;;0.30;99.90;;;;;;5062885;28;20040;-54
2022/11/19 11:38:00;;;;;;;;;;;0.40;99.90;;;;;;5062800;28;20433;-52
2022/11/19 11:40:26;;;;;;;6.90;4.53;;;0.40;99.90;;;;;;5028172;28;19927;-52
2022/11/19 11:42:52;;;;;;;5.28;3.25;;;0.40;99.90;;;;;;5044618;28;20044;-50
2022/11/19 11:45:35;;;;;;;6.47;4.00;;;0.40;99.90;;;;;;5063847;28;20052;-47
2022/11/19 11:48:07;;;;;;;7.05;4.30;;;0.50;99.90;;;;;;5064020;28;20067;-49
2022/11/19 11:50:35;;;;;;;8.73;4.37;;;0.50;99.90;;;;;;5047255;28;20036;-53
2022/11/19 11:53:07;;;;;;;6.28;3.97;;;0.50;99.90;;;;;;5064195;28;20349;-54
2022/11/19 11:55:34;;;;;;;7.43;3.88;;;0.60;99.90;;;;;;5067716;28;20141;-53
2022/11/19 11:58:03;;;;;;;7.63;4.15;;;0.60;99.90;;;;;;5056467;28;20066;-49
2022/11/19 12:00:42;;;;;;;6.85;3.78;;;0.50;99.90;;;;;;5046991;28;20045;-55
2022/11/19 12:03:12;;;;;;;6.22;4.10;;;0.60;99.90;;;;;;5046247;28;20061;-48
2022/11/19 12:05:48;;;;;;;8.35;4.03;;;0.60;99.90;;;;;;5045723;28;20053;-44
2022/11/19 12:08:34;;;;;;;6.20;4.15;;;0.70;99.90;;;;;;5044926;28;20158;-45
2022/11/19 12:11:19;;;;;;;9.48;4.72;;;0.70;99.90;;;;;;5043830;28;20037;-45
2022/11/19 12:13:54;;;;;;;8.40;4.38;;;0.80;99.90;;;;;;5041929;28;20215;-44
2022/11/19 12:16:43;;;;;;;9.23;5.20;;;0.80;99.90;;;;;;5042523;28;20052;-48
2022/11/19 12:19:16;;;;;;;8.45;5.22;;;0.80;99.90;;;;;;5043428;28;20033;-51
2022/11/19 12:21:55;;;;;;;8.65;4.50;;;0.80;99.90;;;;;;5045786;28;20052;-52
2022/11/19 12:24:48;;;;;;;8.48;4.20;;;0.80;99.90;;;;;;5045548;28;20059;-46
2022/11/19 12:27:48;;;;;;;6.93;4.10;;;0.90;99.90;;;;;;5045237;28;20049;-47
2022/11/19 12:30:23;;;;;;;7.00;4.88;;;0.90;99.90;;;;;;5043737;28;20057;-47
2022/11/19 12:33:10;;;;;;;7.07;4.53;;;0.90;99.90;;;;;;5044955;28;20049;-46
2022/11/19 12:35:45;;;;;;;7.97;4.32;;;0.90;99.90;;;;;;5045242;28;20045;-45
2022/11/19 12:38:19;;;;;;;7.25;3.80;;;1.00;99.90;;;;;;5045578;28;20043;-46
2022/11/19 12:40:59;;;;;;;7.97;4.47;;;1.00;99.90;;;;;;5044904;28;20115;-52
2022/11/19 12:43:40;;;;;;;6.63;4.15;;;1.00;99.90;;;;;;5044821;28;20136;-47
2022/11/19 12:46:11;;;;;;;6.03;3.75;;;1.00;99.90;;;;;;5043475;28;20457;-45
2022/11/19 12:49:27;;;;;;;5.70;4.13;;;1.00;99.90;;;;;;5044704;28;20138;-46
2022/11/19 12:52:29;;;;;;;7.38;4.07;;;1.10;99.90;;;;;;5041272;28;20119;-48
2022/11/19 12:55:26;;;;;;;8.57;4.35;;;1.10;99.90;;;;;;5044710;28;20809;-44
2022/11/19 12:58:10;;;;;;;5.03;3.50;;;1.10;99.90;;;;;;5033750;28;20052;-45
2022/11/19 13:00:45;;;;;;;6.32;3.90;;;1.00;99.90;;;;;;5044550;28;20044;-48
2022/11/19 13:03:21;;;;;;;6.35;3.90;;;1.00;99.90;;;;;;5044296;28;20107;-47
2022/11/19 13:05:49;;;;;;;6.10;4.38;;;1.00;99.90;;;;;;5042478;28;20520;-49
2022/11/19 13:08:31;;;;;;;5.97;3.92;;;1.00;99.90;;;;;;5044703;28;20124;-47
2022/11/19 13:11:35;;;;;;;7.18;4.00;;;1.00;99.90;;;;;;5044284;28;20040;-47
2022/11/19 13:14:25;;;;;;;5.57;3.80;;;1.10;99.90;;;;;;5043829;28;20084;-46
2022/11/19 13:16:53;;;;;;;7.07;3.75;;;1.00;99.90;;;;;;5043123;28;20049;-44
2022/11/19 13:19:24;;;;;;;6.50;4.05;;;0.90;99.90;;;;;;5043490;28;20834;-44
2022/11/19 13:21:57;;;;;;;7.22;4.13;;;0.90;99.90;;;;;;5043435;28;20599;-45
2022/11/19 13:24:32;;;;;;;7.18;4.15;;;1.00;99.90;;;;;;5044149;28;20051;-45
2022/11/19 13:27:12;;;;;;;5.90;3.97;;;1.00;99.90;;;;;;5044064;28;20103;-44
2022/11/19 13:29:49;;;;;;;6.85;3.92;;;0.90;99.90;;;;;;5044131;28;20053;-48
2022/11/19 13:32:30;;;;;;;7.43;4.03;;;0.90;99.90;;;;;;5043311;28;20044;-41